メインページ
METAR-TAF:

METAR-TAF

空港 :

バマコ, マリ共和国

バマコ・セヌー国際空港

緯度: 12-32N, 経度: 007-57W, 海抜: 380m

現時点の気象観測

当レポートは41分前の14:00(UTC)に作成
西/南西の風 6kt
気温 28°C
湿度 74%
気圧 1013 hPa
視程10km以上
高度2000ftの雲はほとんどない

METAR: GABS 261400Z 24006KT 9999 FEW020 28/23 Q1013 NOSIG

時間: 14:41 (14:41 UTC)

予報

当レポートは3時間41分前の11:00(UTC)に作成
予報は26日の 12時(UTC)から 27日の 18時(UTC)まで有効
西の風 10kt
視程10km以上
高度2000ftの雲はほとんどない
26日の 16時(UTC)から 26日の 23時(UTC)まで一時的に
の風 15kt、最大35ktの突風を伴う
視程: 4000m
高度2000ftの千切れ雲あり
高度3000ftの雲は散在している, 積乱雲.
激しい雷雨, 雨
27日の 03時(UTC)から 27日の 08時(UTC)まで一時的に
の風 15kt、最大35ktの突風を伴う
視程: 4000m
高度2000ftの千切れ雲あり
高度3000ftの雲は散在している, 積乱雲.
激しい雷雨, 雨
27日の 09時(UTC)から 27日の 17時(UTC)まで一時的に
の風 15kt、最大35ktの突風を伴う
視程: 3000m
高度2000ftの千切れ雲あり
高度3000ftの雲は散在している, 積乱雲.
激しい雷雨, 雨

TAF: GABS 261100Z 2612/2718 28010KT 9999 FEW020 TEMPO 2616/2623 08015G35KT 4000 TSRA BKN020 SCT030CB TEMPO 2703/2708 08015G35KT 4000 TSRA BKN020 SCT030CB TEMPO 2709/2717 08015G35KT 3000 TSRA BKN020 SCT030CB

4,000以上の空港の気象観測と天気予報(METAR報とTAF報)

利用可能な観測所は地図上に黄色い丸と赤い丸で示す。

丸の上にカーソルを重ねると観測所名を参照できる。

次にクリックすると気象観測と天気予報を参照できる。

マップの切り替え:黒色「×」印の緑ボタンをクリックして拡大、「-」印の緑ボタンをクリックして縮小、緑色の三角印をクリックして隣りの地図に切り替え


METAR-TAF: